sensor_id;sensor_type;location;lat;lon;timestamp;temperature;humidity
10089;DHT22;51898;49.864;8.550;2022-11-04T00:00:07;10.90;99.90
10089;DHT22;51898;49.864;8.550;2022-11-04T00:03:09;10.90;99.90
10089;DHT22;51898;49.864;8.550;2022-11-04T00:06:11;10.90;99.90
10089;DHT22;51898;49.864;8.550;2022-11-04T00:09:22;10.90;99.90
10089;DHT22;51898;49.864;8.550;2022-11-04T00:12:24;11.00;99.90
10089;DHT22;51898;49.864;8.550;2022-11-04T00:15:25;11.00;99.90
10089;DHT22;51898;49.864;8.550;2022-11-04T00:18:46;11.00;99.90
10089;DHT22;51898;49.864;8.550;2022-11-04T00:21:48;11.00;99.90
10089;DHT22;51898;49.864;8.550;2022-11-04T00:25:08;11.00;99.90
10089;DHT22;51898;49.864;8.550;2022-11-04T00:28:29;11.10;99.90
10089;DHT22;51898;49.864;8.550;2022-11-04T00:31:46;11.00;99.90
10089;DHT22;51898;49.864;8.550;2022-11-04T00:35:07;11.00;99.90
10089;DHT22;51898;49.864;8.550;2022-11-04T00:38:09;11.10;99.90
10089;DHT22;51898;49.864;8.550;2022-11-04T00:41:11;11.00;99.90
10089;DHT22;51898;49.864;8.550;2022-11-04T00:44:29;11.10;99.90
10089;DHT22;51898;49.864;8.550;2022-11-04T00:47:30;11.10;99.90
10089;DHT22;51898;49.864;8.550;2022-11-04T00:50:33;11.10;99.90
10089;DHT22;51898;49.864;8.550;2022-11-04T00:53:34;11.10;99.90
10089;DHT22;51898;49.864;8.550;2022-11-04T00:56:37;11.10;99.90
10089;DHT22;51898;49.864;8.550;2022-11-04T00:59:39;11.10;99.90
10089;DHT22;51898;49.864;8.550;2022-11-04T01:02:40;11.10;99.90
10089;DHT22;51898;49.864;8.550;2022-11-04T01:05:42;11.10;99.90
10089;DHT22;51898;49.864;8.550;2022-11-04T01:08:44;11.10;99.90
10089;DHT22;51898;49.864;8.550;2022-11-04T01:11:47;11.10;99.90
10089;DHT22;51898;49.864;8.550;2022-11-04T01:14:48;11.10;99.90
10089;DHT22;51898;49.864;8.550;2022-11-04T01:17:50;11.10;99.90
10089;DHT22;51898;49.864;8.550;2022-11-04T01:20:52;11.10;99.90
10089;DHT22;51898;49.864;8.550;2022-11-04T01:23:54;11.10;99.90
10089;DHT22;51898;49.864;8.550;2022-11-04T01:26:55;11.10;99.90
10089;DHT22;51898;49.864;8.550;2022-11-04T01:29:57;11.00;99.90
10089;DHT22;51898;49.864;8.550;2022-11-04T01:32:58;11.00;99.90
10089;DHT22;51898;49.864;8.550;2022-11-04T01:36:00;11.00;99.90
10089;DHT22;51898;49.864;8.550;2022-11-04T01:39:02;11.00;99.90
10089;DHT22;51898;49.864;8.550;2022-11-04T01:42:04;11.00;99.90
10089;DHT22;51898;49.864;8.550;2022-11-04T01:45:12;11.00;99.90
10089;DHT22;51898;49.864;8.550;2022-11-04T01:48:24;10.90;99.90
10089;DHT22;51898;49.864;8.550;2022-11-04T01:51:29;10.90;99.90
10089;DHT22;51898;49.864;8.550;2022-11-04T01:54:34;10.90;99.90
10089;DHT22;51898;49.864;8.550;2022-11-04T01:57:40;10.90;99.90
10089;DHT22;51898;49.864;8.550;2022-11-04T02:00:42;10.90;99.90
10089;DHT22;51898;49.864;8.550;2022-11-04T02:03:59;10.90;99.90
10089;DHT22;51898;49.864;8.550;2022-11-04T02:07:20;10.90;99.90
10089;DHT22;51898;49.864;8.550;2022-11-04T02:10:25;10.80;99.90
10089;DHT22;51898;49.864;8.550;2022-11-04T02:13:30;10.80;99.90
10089;DHT22;51898;49.864;8.550;2022-11-04T02:16:42;10.80;99.90
10089;DHT22;51898;49.864;8.550;2022-11-04T02:27:17;10.60;99.90
10089;DHT22;51898;49.864;8.550;2022-11-04T02:30:22;10.60;99.90
10089;DHT22;51898;49.864;8.550;2022-11-04T02:33:46;10.50;99.90
10089;DHT22;51898;49.864;8.550;2022-11-04T02:46:48;10.40;99.90
10089;DHT22;51898;49.864;8.550;2022-11-04T02:50:13;10.30;99.90
10089;DHT22;51898;49.864;8.550;2022-11-04T02:53:28;10.20;99.90
10089;DHT22;51898;49.864;8.550;2022-11-04T02:56:35;10.20;99.90
10089;DHT22;51898;49.864;8.550;2022-11-04T02:59:44;10.20;99.90
10089;DHT22;51898;49.864;8.550;2022-11-04T03:03:12;10.10;99.90
10089;DHT22;51898;49.864;8.550;2022-11-04T03:06:17;10.10;99.90
10089;DHT22;51898;49.864;8.550;2022-11-04T03:09:21;10.00;99.90
10089;DHT22;51898;49.864;8.550;2022-11-04T03:12:28;10.00;99.90
10089;DHT22;51898;49.864;8.550;2022-11-04T03:15:34;9.90;99.90
10089;DHT22;51898;49.864;8.550;2022-11-04T03:19:08;9.90;99.90
10089;DHT22;51898;49.864;8.550;2022-11-04T03:22:15;9.90;99.90
10089;DHT22;51898;49.864;8.550;2022-11-04T03:25:17;9.90;99.90
10089;DHT22;51898;49.864;8.550;2022-11-04T03:28:42;9.80;99.90
10089;DHT22;51898;49.864;8.550;2022-11-04T03:32:09;9.80;99.90
10089;DHT22;51898;49.864;8.550;2022-11-04T03:35:15;9.80;99.90
10089;DHT22;51898;49.864;8.550;2022-11-04T03:38:18;9.90;99.90
10089;DHT22;51898;49.864;8.550;2022-11-04T03:41:30;9.80;99.90
10089;DHT22;51898;49.864;8.550;2022-11-04T03:44:35;9.80;99.90
10089;DHT22;51898;49.864;8.550;2022-11-04T03:47:38;9.80;99.90
10089;DHT22;51898;49.864;8.550;2022-11-04T03:50:42;9.80;99.90
10089;DHT22;51898;49.864;8.550;2022-11-04T03:53:44;9.90;99.90
10089;DHT22;51898;49.864;8.550;2022-11-04T04:00:00;9.90;99.90
10089;DHT22;51898;49.864;8.550;2022-11-04T04:03:16;9.80;99.90
10089;DHT22;51898;49.864;8.550;2022-11-04T04:06:23;9.80;99.90
10089;DHT22;51898;49.864;8.550;2022-11-04T04:09:34;9.80;99.90
10089;DHT22;51898;49.864;8.550;2022-11-04T04:12:39;9.80;99.90
10089;DHT22;51898;49.864;8.550;2022-11-04T04:16:09;9.80;99.90
10089;DHT22;51898;49.864;8.550;2022-11-04T04:19:12;9.80;99.90
10089;DHT22;51898;49.864;8.550;2022-11-04T04:22:24;9.80;99.90
10089;DHT22;51898;49.864;8.550;2022-11-04T04:25:28;9.80;99.90
10089;DHT22;51898;49.864;8.550;2022-11-04T04:28:51;9.80;99.90
10089;DHT22;51898;49.864;8.550;2022-11-04T04:31:55;9.80;99.90
10089;DHT22;51898;49.864;8.550;2022-11-04T04:34:58;9.80;99.90
10089;DHT22;51898;49.864;8.550;2022-11-04T04:38:30;9.70;99.90
10089;DHT22;51898;49.864;8.550;2022-11-04T04:41:52;9.70;99.90
10089;DHT22;51898;49.864;8.550;2022-11-04T04:45:24;9.70;99.90
10089;DHT22;51898;49.864;8.550;2022-11-04T04:48:27;9.60;99.90
10089;DHT22;51898;49.864;8.550;2022-11-04T04:51:29;9.60;99.90
10089;DHT22;51898;49.864;8.550;2022-11-04T04:54:31;9.50;99.90
10089;DHT22;51898;49.864;8.550;2022-11-04T04:57:33;9.50;99.90
10089;DHT22;51898;49.864;8.550;2022-11-04T05:00:35;9.40;99.90
10089;DHT22;51898;49.864;8.550;2022-11-04T05:03:37;9.30;99.90
10089;DHT22;51898;49.864;8.550;2022-11-04T05:06:45;9.30;99.90
10089;DHT22;51898;49.864;8.550;2022-11-04T05:09:47;9.30;99.90
10089;DHT22;51898;49.864;8.550;2022-11-04T05:12:48;9.20;99.90
10089;DHT22;51898;49.864;8.550;2022-11-04T05:16:09;9.20;99.90
10089;DHT22;51898;49.864;8.550;2022-11-04T05:19:11;9.20;99.90
10089;DHT22;51898;49.864;8.550;2022-11-04T05:22:13;9.20;99.90
10089;DHT22;51898;49.864;8.550;2022-11-04T05:25:15;9.20;99.90
10089;DHT22;51898;49.864;8.550;2022-11-04T05:28:17;9.20;99.90
10089;DHT22;51898;49.864;8.550;2022-11-04T05:31:18;9.20;99.90
10089;DHT22;51898;49.864;8.550;2022-11-04T05:34:20;9.20;99.90
10089;DHT22;51898;49.864;8.550;2022-11-04T05:37:22;9.20;99.90
10089;DHT22;51898;49.864;8.550;2022-11-04T05:40:23;9.20;99.90
10089;DHT22;51898;49.864;8.550;2022-11-04T05:43:25;9.20;99.90
10089;DHT22;51898;49.864;8.550;2022-11-04T05:46:28;9.20;99.90
10089;DHT22;51898;49.864;8.550;2022-11-04T05:49:29;9.10;99.90
10089;DHT22;51898;49.864;8.550;2022-11-04T05:52:34;9.10;99.90
10089;DHT22;51898;49.864;8.550;2022-11-04T05:55:36;9.10;99.90
10089;DHT22;51898;49.864;8.550;2022-11-04T05:58:38;9.10;99.90
10089;DHT22;51898;49.864;8.550;2022-11-04T06:01:40;9.10;99.90
10089;DHT22;51898;49.864;8.550;2022-11-04T06:04:43;9.10;99.90
10089;DHT22;51898;49.864;8.550;2022-11-04T06:07:44;9.10;99.90
10089;DHT22;51898;49.864;8.550;2022-11-04T06:10:46;9.10;99.90
10089;DHT22;51898;49.864;8.550;2022-11-04T06:13:48;9.10;99.90
10089;DHT22;51898;49.864;8.550;2022-11-04T06:16:50;9.10;99.90
10089;DHT22;51898;49.864;8.550;2022-11-04T06:19:51;9.10;99.90
10089;DHT22;51898;49.864;8.550;2022-11-04T06:22:53;9.20;99.90
10089;DHT22;51898;49.864;8.550;2022-11-04T06:25:54;9.20;99.90
10089;DHT22;51898;49.864;8.550;2022-11-04T06:28:56;9.30;99.90
10089;DHT22;51898;49.864;8.550;2022-11-04T06:31:58;9.30;99.90
10089;DHT22;51898;49.864;8.550;2022-11-04T06:35:00;9.30;99.90
10089;DHT22;51898;49.864;8.550;2022-11-04T06:38:01;9.30;99.90
10089;DHT22;51898;49.864;8.550;2022-11-04T06:41:04;9.40;99.90
10089;DHT22;51898;49.864;8.550;2022-11-04T06:44:06;9.30;99.90
10089;DHT22;51898;49.864;8.550;2022-11-04T06:47:08;9.30;99.90
10089;DHT22;51898;49.864;8.550;2022-11-04T06:50:11;9.30;99.90
10089;DHT22;51898;49.864;8.550;2022-11-04T06:53:13;9.30;99.90
10089;DHT22;51898;49.864;8.550;2022-11-04T06:56:15;9.40;99.90
10089;DHT22;51898;49.864;8.550;2022-11-04T06:59:18;9.40;99.90
10089;DHT22;51898;49.864;8.550;2022-11-04T07:02:20;9.40;99.90
10089;DHT22;51898;49.864;8.550;2022-11-04T07:05:22;9.50;99.90
10089;DHT22;51898;49.864;8.550;2022-11-04T07:08:24;9.50;99.90
10089;DHT22;51898;49.864;8.550;2022-11-04T07:11:27;9.60;99.90
10089;DHT22;51898;49.864;8.550;2022-11-04T07:14:29;9.60;99.90
10089;DHT22;51898;49.864;8.550;2022-11-04T07:17:31;9.60;99.90
10089;DHT22;51898;49.864;8.550;2022-11-04T07:20:35;9.70;99.90
10089;DHT22;51898;49.864;8.550;2022-11-04T07:23:37;9.70;99.90
10089;DHT22;51898;49.864;8.550;2022-11-04T07:26:42;9.70;99.90
10089;DHT22;51898;49.864;8.550;2022-11-04T07:29:43;9.80;99.90
10089;DHT22;51898;49.864;8.550;2022-11-04T07:32:45;9.80;99.90
10089;DHT22;51898;49.864;8.550;2022-11-04T07:35:47;9.80;99.90
10089;DHT22;51898;49.864;8.550;2022-11-04T07:38:49;9.90;99.90
10089;DHT22;51898;49.864;8.550;2022-11-04T07:41:50;10.00;99.90
10089;DHT22;51898;49.864;8.550;2022-11-04T07:44:59;10.00;99.90
10089;DHT22;51898;49.864;8.550;2022-11-04T07:48:01;10.00;99.90
10089;DHT22;51898;49.864;8.550;2022-11-04T07:51:05;10.10;99.90
10089;DHT22;51898;49.864;8.550;2022-11-04T07:54:09;10.20;99.90
10089;DHT22;51898;49.864;8.550;2022-11-04T07:57:11;10.20;99.90
10089;DHT22;51898;49.864;8.550;2022-11-04T08:00:14;10.20;99.90
10089;DHT22;51898;49.864;8.550;2022-11-04T08:03:17;10.30;99.90
10089;DHT22;51898;49.864;8.550;2022-11-04T08:06:20;10.30;99.90
10089;DHT22;51898;49.864;8.550;2022-11-04T08:09:21;10.30;99.90
10089;DHT22;51898;49.864;8.550;2022-11-04T08:12:23;10.30;99.90
10089;DHT22;51898;49.864;8.550;2022-11-04T08:15:25;10.30;99.90
10089;DHT22;51898;49.864;8.550;2022-11-04T08:18:27;10.30;99.90
10089;DHT22;51898;49.864;8.550;2022-11-04T08:21:30;10.30;99.90
10089;DHT22;51898;49.864;8.550;2022-11-04T08:24:32;10.30;99.90
10089;DHT22;51898;49.864;8.550;2022-11-04T08:27:33;10.40;99.90
10089;DHT22;51898;49.864;8.550;2022-11-04T08:30:35;10.40;99.90
10089;DHT22;51898;49.864;8.550;2022-11-04T08:33:37;10.50;99.90
10089;DHT22;51898;49.864;8.550;2022-11-04T08:36:39;10.50;99.90
10089;DHT22;51898;49.864;8.550;2022-11-04T08:39:45;10.60;99.90
10089;DHT22;51898;49.864;8.550;2022-11-04T08:42:47;10.70;99.90
10089;DHT22;51898;49.864;8.550;2022-11-04T08:45:49;10.80;99.90
10089;DHT22;51898;49.864;8.550;2022-11-04T08:48:50;10.90;99.90
10089;DHT22;51898;49.864;8.550;2022-11-04T08:51:52;11.00;99.90
10089;DHT22;51898;49.864;8.550;2022-11-04T08:55:00;11.10;99.90
10089;DHT22;51898;49.864;8.550;2022-11-04T08:58:01;11.10;99.90
10089;DHT22;51898;49.864;8.550;2022-11-04T09:01:04;11.10;99.90
10089;DHT22;51898;49.864;8.550;2022-11-04T09:04:06;11.20;99.90
10089;DHT22;51898;49.864;8.550;2022-11-04T09:07:08;11.30;99.90
10089;DHT22;51898;49.864;8.550;2022-11-04T09:10:10;11.40;99.90
10089;DHT22;51898;49.864;8.550;2022-11-04T09:13:14;11.40;99.90
10089;DHT22;51898;49.864;8.550;2022-11-04T09:16:16;11.50;99.90
10089;DHT22;51898;49.864;8.550;2022-11-04T09:19:18;11.50;99.90
10089;DHT22;51898;49.864;8.550;2022-11-04T09:22:19;11.60;99.90
10089;DHT22;51898;49.864;8.550;2022-11-04T09:25:21;11.70;99.90
10089;DHT22;51898;49.864;8.550;2022-11-04T09:28:23;11.70;99.90
10089;DHT22;51898;49.864;8.550;2022-11-04T09:31:27;11.90;99.90
10089;DHT22;51898;49.864;8.550;2022-11-04T09:34:29;12.00;99.90
10089;DHT22;51898;49.864;8.550;2022-11-04T09:37:31;12.20;99.90
10089;DHT22;51898;49.864;8.550;2022-11-04T09:40:35;12.30;99.90
10089;DHT22;51898;49.864;8.550;2022-11-04T09:43:50;12.40;99.90
10089;DHT22;51898;49.864;8.550;2022-11-04T09:46:58;12.40;99.90
10089;DHT22;51898;49.864;8.550;2022-11-04T09:50:06;12.50;99.90
10089;DHT22;51898;49.864;8.550;2022-11-04T09:53:19;12.60;99.90
10089;DHT22;51898;49.864;8.550;2022-11-04T09:56:28;12.70;99.90
10089;DHT22;51898;49.864;8.550;2022-11-04T09:59:33;12.70;99.90
10089;DHT22;51898;49.864;8.550;2022-11-04T10:02:54;12.80;99.90
10089;DHT22;51898;49.864;8.550;2022-11-04T10:06:29;12.80;99.90
10089;DHT22;51898;49.864;8.550;2022-11-04T10:09:47;12.80;99.90
10089;DHT22;51898;49.864;8.550;2022-11-04T10:22:40;13.40;99.90
10089;DHT22;51898;49.864;8.550;2022-11-04T10:25:48;13.40;99.90
10089;DHT22;51898;49.864;8.550;2022-11-04T10:29:01;13.30;99.90
10089;DHT22;51898;49.864;8.550;2022-11-04T10:32:17;13.20;99.90
10089;DHT22;51898;49.864;8.550;2022-11-04T10:35:30;13.20;99.90
10089;DHT22;51898;49.864;8.550;2022-11-04T10:38:37;13.20;99.90
10089;DHT22;51898;49.864;8.550;2022-11-04T10:41:40;13.10;99.90
10089;DHT22;51898;49.864;8.550;2022-11-04T10:44:42;13.00;99.90
10089;DHT22;51898;49.864;8.550;2022-11-04T10:47:50;12.90;99.90
10089;DHT22;51898;49.864;8.550;2022-11-04T10:50:56;12.90;99.90
10089;DHT22;51898;49.864;8.550;2022-11-04T10:53:59;12.80;99.90
10089;DHT22;51898;49.864;8.550;2022-11-04T10:57:01;12.70;99.90
10089;DHT22;51898;49.864;8.550;2022-11-04T11:00:04;12.70;99.90
10089;DHT22;51898;49.864;8.550;2022-11-04T11:03:32;12.80;99.90
10089;DHT22;51898;49.864;8.550;2022-11-04T11:06:35;12.90;99.90
10089;DHT22;51898;49.864;8.550;2022-11-04T11:12:41;13.20;99.90
10089;DHT22;51898;49.864;8.550;2022-11-04T11:16:26;13.40;99.90
10089;DHT22;51898;49.864;8.550;2022-11-04T11:19:28;13.50;99.90
10089;DHT22;51898;49.864;8.550;2022-11-04T11:22:37;13.70;99.90
10089;DHT22;51898;49.864;8.550;2022-11-04T11:25:42;13.80;99.90
10089;DHT22;51898;49.864;8.550;2022-11-04T11:28:53;13.90;99.90
10089;DHT22;51898;49.864;8.550;2022-11-04T11:32:00;14.10;99.90
10089;DHT22;51898;49.864;8.550;2022-11-04T11:35:02;14.10;99.90
10089;DHT22;51898;49.864;8.550;2022-11-04T11:38:25;14.10;99.90
10089;DHT22;51898;49.864;8.550;2022-11-04T11:41:35;14.00;99.90
10089;DHT22;51898;49.864;8.550;2022-11-04T11:44:55;13.80;99.90
10089;DHT22;51898;49.864;8.550;2022-11-04T11:47:57;13.80;99.90
10089;DHT22;51898;49.864;8.550;2022-11-04T11:50:59;13.80;99.90
10089;DHT22;51898;49.864;8.550;2022-11-04T12:01:30;13.60;99.90
10089;DHT22;51898;49.864;8.550;2022-11-04T12:04:33;13.70;99.90
10089;DHT22;51898;49.864;8.550;2022-11-04T12:15:15;13.40;99.90
10089;DHT22;51898;49.864;8.550;2022-11-04T12:22:02;13.40;99.90
10089;DHT22;51898;49.864;8.550;2022-11-04T12:25:22;13.40;99.90
10089;DHT22;51898;49.864;8.550;2022-11-04T12:28:52;13.40;99.90
10089;DHT22;51898;49.864;8.550;2022-11-04T12:32:15;13.50;99.90
10089;DHT22;51898;49.864;8.550;2022-11-04T12:35:31;13.60;99.90
10089;DHT22;51898;49.864;8.550;2022-11-04T12:42:29;14.00;99.90
10089;DHT22;51898;49.864;8.550;2022-11-04T13:02:29;14.20;99.90
10089;DHT22;51898;49.864;8.550;2022-11-04T13:05:57;14.10;99.90
10089;DHT22;51898;49.864;8.550;2022-11-04T13:09:17;14.20;99.90
10089;DHT22;51898;49.864;8.550;2022-11-04T13:12:35;14.20;99.90
10089;DHT22;51898;49.864;8.550;2022-11-04T13:15:49;14.10;99.90
10089;DHT22;51898;49.864;8.550;2022-11-04T13:18:52;14.00;99.90
10089;DHT22;51898;49.864;8.550;2022-11-04T13:21:55;14.00;99.90
10089;DHT22;51898;49.864;8.550;2022-11-04T13:28:12;13.80;99.90
10089;DHT22;51898;49.864;8.550;2022-11-04T13:34:47;14.00;99.90
10089;DHT22;51898;49.864;8.550;2022-11-04T13:38:01;14.10;99.90
10089;DHT22;51898;49.864;8.550;2022-11-04T13:44:44;14.20;99.90
10089;DHT22;51898;49.864;8.550;2022-11-04T13:47:54;14.20;99.90
10089;DHT22;51898;49.864;8.550;2022-11-04T13:51:10;14.20;99.90
10089;DHT22;51898;49.864;8.550;2022-11-04T13:54:26;14.10;99.90
10089;DHT22;51898;49.864;8.550;2022-11-04T13:57:31;14.10;99.90
10089;DHT22;51898;49.864;8.550;2022-11-04T14:00:34;14.00;99.90
10089;DHT22;51898;49.864;8.550;2022-11-04T14:03:49;14.00;99.90
10089;DHT22;51898;49.864;8.550;2022-11-04T14:07:02;13.70;99.90
10089;DHT22;51898;49.864;8.550;2022-11-04T14:14:00;13.70;99.90
10089;DHT22;51898;49.864;8.550;2022-11-04T14:17:03;13.60;99.90
10089;DHT22;51898;49.864;8.550;2022-11-04T14:23:21;13.60;99.90
10089;DHT22;51898;49.864;8.550;2022-11-04T14:26:43;13.40;99.90
10089;DHT22;51898;49.864;8.550;2022-11-04T14:29:49;13.40;99.90
10089;DHT22;51898;49.864;8.550;2022-11-04T14:32:55;13.50;99.90
10089;DHT22;51898;49.864;8.550;2022-11-04T14:39:23;13.30;99.90
10089;DHT22;51898;49.864;8.550;2022-11-04T14:42:45;13.20;99.90
10089;DHT22;51898;49.864;8.550;2022-11-04T14:45:48;13.20;99.90
10089;DHT22;51898;49.864;8.550;2022-11-04T14:48:52;13.20;99.90
10089;DHT22;51898;49.864;8.550;2022-11-04T14:51:55;13.20;99.90
10089;DHT22;51898;49.864;8.550;2022-11-04T14:58:24;13.00;99.90
10089;DHT22;51898;49.864;8.550;2022-11-04T15:01:29;13.00;99.90
10089;DHT22;51898;49.864;8.550;2022-11-04T15:04:35;12.90;99.90
10089;DHT22;51898;49.864;8.550;2022-11-04T15:07:38;12.90;99.90
10089;DHT22;51898;49.864;8.550;2022-11-04T15:10:40;12.90;99.90
10089;DHT22;51898;49.864;8.550;2022-11-04T15:13:56;12.90;99.90
10089;DHT22;51898;49.864;8.550;2022-11-04T15:16:59;12.80;99.90
10089;DHT22;51898;49.864;8.550;2022-11-04T15:20:03;12.70;99.90
10089;DHT22;51898;49.864;8.550;2022-11-04T15:23:08;12.60;99.90
10089;DHT22;51898;49.864;8.550;2022-11-04T15:26:20;12.60;99.90
10089;DHT22;51898;49.864;8.550;2022-11-04T15:29:30;12.50;99.90
10089;DHT22;51898;49.864;8.550;2022-11-04T15:32:32;12.40;99.90
10089;DHT22;51898;49.864;8.550;2022-11-04T15:35:34;12.30;99.90
10089;DHT22;51898;49.864;8.550;2022-11-04T15:38:48;12.20;99.90
10089;DHT22;51898;49.864;8.550;2022-11-04T15:41:53;12.10;99.90
10089;DHT22;51898;49.864;8.550;2022-11-04T15:45:36;12.00;99.90
10089;DHT22;51898;49.864;8.550;2022-11-04T15:48:38;11.90;99.90
10089;DHT22;51898;49.864;8.550;2022-11-04T15:51:41;11.80;99.90
10089;DHT22;51898;49.864;8.550;2022-11-04T15:54:45;11.70;99.90
10089;DHT22;51898;49.864;8.550;2022-11-04T15:57:49;11.60;99.90
10089;DHT22;51898;49.864;8.550;2022-11-04T16:00:53;11.50;99.90
10089;DHT22;51898;49.864;8.550;2022-11-04T16:03:58;11.50;99.90
10089;DHT22;51898;49.864;8.550;2022-11-04T16:10:35;11.40;99.90
10089;DHT22;51898;49.864;8.550;2022-11-04T16:13:37;11.30;99.90
10089;DHT22;51898;49.864;8.550;2022-11-04T16:16:45;11.30;99.90
10089;DHT22;51898;49.864;8.550;2022-11-04T16:19:53;11.20;99.90
10089;DHT22;51898;49.864;8.550;2022-11-04T16:22:58;11.10;99.90
10089;DHT22;51898;49.864;8.550;2022-11-04T16:26:03;11.10;99.90
10089;DHT22;51898;49.864;8.550;2022-11-04T16:29:35;11.10;99.90
10089;DHT22;51898;49.864;8.550;2022-11-04T16:32:52;11.00;99.90
10089;DHT22;51898;49.864;8.550;2022-11-04T16:35:57;10.90;99.90
10089;DHT22;51898;49.864;8.550;2022-11-04T16:39:00;10.80;99.90
10089;DHT22;51898;49.864;8.550;2022-11-04T16:42:04;10.80;99.90
10089;DHT22;51898;49.864;8.550;2022-11-04T16:45:09;10.70;99.90
10089;DHT22;51898;49.864;8.550;2022-11-04T16:48:19;10.70;99.90
10089;DHT22;51898;49.864;8.550;2022-11-04T16:51:22;10.60;99.90
10089;DHT22;51898;49.864;8.550;2022-11-04T16:54:24;10.60;99.90
10089;DHT22;51898;49.864;8.550;2022-11-04T16:57:25;10.60;99.90
10089;DHT22;51898;49.864;8.550;2022-11-04T17:00:28;10.60;99.90
10089;DHT22;51898;49.864;8.550;2022-11-04T17:03:33;10.60;99.90
10089;DHT22;51898;49.864;8.550;2022-11-04T17:06:36;10.60;99.90
10089;DHT22;51898;49.864;8.550;2022-11-04T17:09:38;10.60;99.90
10089;DHT22;51898;49.864;8.550;2022-11-04T17:12:40;10.60;99.90
10089;DHT22;51898;49.864;8.550;2022-11-04T17:15:41;10.50;99.90
10089;DHT22;51898;49.864;8.550;2022-11-04T17:18:43;10.40;99.90
10089;DHT22;51898;49.864;8.550;2022-11-04T17:21:45;10.40;99.90
10089;DHT22;51898;49.864;8.550;2022-11-04T17:24:47;10.50;99.90
10089;DHT22;51898;49.864;8.550;2022-11-04T17:27:48;10.50;99.90
10089;DHT22;51898;49.864;8.550;2022-11-04T17:30:50;10.40;99.90
10089;DHT22;51898;49.864;8.550;2022-11-04T17:33:52;10.40;99.90
10089;DHT22;51898;49.864;8.550;2022-11-04T17:36:53;10.30;99.90
10089;DHT22;51898;49.864;8.550;2022-11-04T17:39:55;10.30;99.90
10089;DHT22;51898;49.864;8.550;2022-11-04T17:42:57;10.40;99.90
10089;DHT22;51898;49.864;8.550;2022-11-04T17:46:18;10.30;99.90
10089;DHT22;51898;49.864;8.550;2022-11-04T17:49:35;10.20;99.90
10089;DHT22;51898;49.864;8.550;2022-11-04T17:52:39;10.20;99.90
10089;DHT22;51898;49.864;8.550;2022-11-04T17:55:42;10.20;99.90
10089;DHT22;51898;49.864;8.550;2022-11-04T17:58:44;10.10;99.90
10089;DHT22;51898;49.864;8.550;2022-11-04T18:01:46;10.10;99.90
10089;DHT22;51898;49.864;8.550;2022-11-04T18:04:48;10.00;99.90
10089;DHT22;51898;49.864;8.550;2022-11-04T18:07:49;10.00;99.90
10089;DHT22;51898;49.864;8.550;2022-11-04T18:10:58;10.00;99.90
10089;DHT22;51898;49.864;8.550;2022-11-04T18:14:00;10.00;99.90
10089;DHT22;51898;49.864;8.550;2022-11-04T18:17:02;10.00;99.90
10089;DHT22;51898;49.864;8.550;2022-11-04T18:20:07;10.00;99.90
10089;DHT22;51898;49.864;8.550;2022-11-04T18:23:14;10.00;99.90
10089;DHT22;51898;49.864;8.550;2022-11-04T18:26:16;10.00;99.90
10089;DHT22;51898;49.864;8.550;2022-11-04T18:29:19;10.00;99.90
10089;DHT22;51898;49.864;8.550;2022-11-04T18:32:21;10.10;99.90
10089;DHT22;51898;49.864;8.550;2022-11-04T18:35:24;10.00;99.90
10089;DHT22;51898;49.864;8.550;2022-11-04T18:38:25;10.00;99.90
10089;DHT22;51898;49.864;8.550;2022-11-04T18:41:27;10.10;99.90
10089;DHT22;51898;49.864;8.550;2022-11-04T18:44:29;10.10;99.90
10089;DHT22;51898;49.864;8.550;2022-11-04T18:47:31;10.10;99.90
10089;DHT22;51898;49.864;8.550;2022-11-04T18:50:34;10.20;99.90
10089;DHT22;51898;49.864;8.550;2022-11-04T18:53:38;10.20;99.90
10089;DHT22;51898;49.864;8.550;2022-11-04T18:56:41;10.30;99.90
10089;DHT22;51898;49.864;8.550;2022-11-04T18:59:43;10.30;99.90
10089;DHT22;51898;49.864;8.550;2022-11-04T19:02:44;10.30;99.90
10089;DHT22;51898;49.864;8.550;2022-11-04T19:05:46;10.20;99.90
10089;DHT22;51898;49.864;8.550;2022-11-04T19:08:48;10.20;99.90
10089;DHT22;51898;49.864;8.550;2022-11-04T19:11:51;10.20;99.90
10089;DHT22;51898;49.864;8.550;2022-11-04T19:15:13;10.30;99.90
10089;DHT22;51898;49.864;8.550;2022-11-04T19:18:15;10.20;99.90
10089;DHT22;51898;49.864;8.550;2022-11-04T19:21:19;10.20;99.90
10089;DHT22;51898;49.864;8.550;2022-11-04T19:24:21;10.10;99.90
10089;DHT22;51898;49.864;8.550;2022-11-04T19:27:22;10.00;99.90
10089;DHT22;51898;49.864;8.550;2022-11-04T19:30:25;10.00;99.90
10089;DHT22;51898;49.864;8.550;2022-11-04T19:33:28;10.00;99.90
10089;DHT22;51898;49.864;8.550;2022-11-04T19:36:31;10.10;99.90
10089;DHT22;51898;49.864;8.550;2022-11-04T19:39:33;10.10;99.90
10089;DHT22;51898;49.864;8.550;2022-11-04T19:42:35;10.10;99.90
10089;DHT22;51898;49.864;8.550;2022-11-04T19:45:59;10.20;99.90
10089;DHT22;51898;49.864;8.550;2022-11-04T19:49:06;10.20;99.90
10089;DHT22;51898;49.864;8.550;2022-11-04T19:52:08;10.10;99.90
10089;DHT22;51898;49.864;8.550;2022-11-04T19:55:09;10.10;99.90
10089;DHT22;51898;49.864;8.550;2022-11-04T19:58:11;10.10;99.90
10089;DHT22;51898;49.864;8.550;2022-11-04T20:01:16;10.10;99.90
10089;DHT22;51898;49.864;8.550;2022-11-04T20:04:18;10.10;99.90
10089;DHT22;51898;49.864;8.550;2022-11-04T20:07:19;10.00;99.90
10089;DHT22;51898;49.864;8.550;2022-11-04T20:10:21;10.10;99.90
10089;DHT22;51898;49.864;8.550;2022-11-04T20:13:23;10.10;99.90
10089;DHT22;51898;49.864;8.550;2022-11-04T20:16:45;10.10;99.90
10089;DHT22;51898;49.864;8.550;2022-11-04T20:19:47;10.20;99.90
10089;DHT22;51898;49.864;8.550;2022-11-04T20:22:48;10.20;99.90
10089;DHT22;51898;49.864;8.550;2022-11-04T20:25:50;10.20;99.90
10089;DHT22;51898;49.864;8.550;2022-11-04T20:29:14;10.20;99.90
10089;DHT22;51898;49.864;8.550;2022-11-04T20:32:18;10.20;99.90
10089;DHT22;51898;49.864;8.550;2022-11-04T20:35:19;10.30;99.90
10089;DHT22;51898;49.864;8.550;2022-11-04T20:38:22;10.20;99.90
10089;DHT22;51898;49.864;8.550;2022-11-04T20:41:24;10.20;99.90
10089;DHT22;51898;49.864;8.550;2022-11-04T20:44:26;10.20;99.90
10089;DHT22;51898;49.864;8.550;2022-11-04T20:47:28;10.20;99.90
10089;DHT22;51898;49.864;8.550;2022-11-04T20:50:30;10.20;99.90
10089;DHT22;51898;49.864;8.550;2022-11-04T20:53:32;10.20;99.90
10089;DHT22;51898;49.864;8.550;2022-11-04T20:56:35;10.10;99.90
10089;DHT22;51898;49.864;8.550;2022-11-04T20:59:37;10.10;99.90
10089;DHT22;51898;49.864;8.550;2022-11-04T21:02:39;10.10;99.90
10089;DHT22;51898;49.864;8.550;2022-11-04T21:05:42;10.10;99.90
10089;DHT22;51898;49.864;8.550;2022-11-04T21:08:44;10.10;99.90
10089;DHT22;51898;49.864;8.550;2022-11-04T21:11:47;10.10;99.90
10089;DHT22;51898;49.864;8.550;2022-11-04T21:14:49;10.10;99.90
10089;DHT22;51898;49.864;8.550;2022-11-04T21:17:50;10.10;99.90
10089;DHT22;51898;49.864;8.550;2022-11-04T21:20:53;10.10;99.90